sensor_id;sensor_type;location;lat;lon;timestamp;pressure;altitude;pressure_sealevel;temperature;humidity
75891;BME280;64571;47.512;19.054;2023-05-13T00:01:06;100849.12;;;11.72;88.90
75891;BME280;64571;47.512;19.054;2023-05-13T00:04:09;100850.78;;;11.73;89.05
75891;BME280;64571;47.512;19.054;2023-05-13T00:07:11;100826.72;;;11.58;88.43
75891;BME280;64571;47.512;19.054;2023-05-13T00:10:14;100836.38;;;11.65;88.23
75891;BME280;64571;47.512;19.054;2023-05-13T00:13:17;100838.09;;;11.61;88.05
75891;BME280;64571;47.512;19.054;2023-05-13T00:16:20;100850.03;;;11.67;88.02
75891;BME280;64571;47.512;19.054;2023-05-13T00:19:25;100855.03;;;11.65;88.26
75891;BME280;64571;47.512;19.054;2023-05-13T00:22:28;100843.63;;;11.66;87.97
75891;BME280;64571;47.512;19.054;2023-05-13T00:25:30;100832.28;;;11.58;87.70
75891;BME280;64571;47.512;19.054;2023-05-13T00:28:33;100851.44;;;11.64;87.72
75891;BME280;64571;47.512;19.054;2023-05-13T00:31:35;100848.94;;;11.63;87.84
75891;BME280;64571;47.512;19.054;2023-05-13T00:34:38;100835.91;;;11.58;88.26
75891;BME280;64571;47.512;19.054;2023-05-13T00:37:41;100853.97;;;11.61;88.47
75891;BME280;64571;47.512;19.054;2023-05-13T00:40:44;100837.94;;;11.48;88.00
75891;BME280;64571;47.512;19.054;2023-05-13T00:43:47;100859.59;;;11.56;88.15
75891;BME280;64571;47.512;19.054;2023-05-13T00:46:49;100859.59;;;11.56;88.43
75891;BME280;64571;47.512;19.054;2023-05-13T00:49:52;100857.44;;;11.48;88.04
75891;BME280;64571;47.512;19.054;2023-05-13T00:52:56;100838.00;;;11.43;88.32
75891;BME280;64571;47.512;19.054;2023-05-13T00:55:58;100841.34;;;11.45;88.19
75891;BME280;64571;47.512;19.054;2023-05-13T00:59:01;100860.78;;;11.50;88.03
75891;BME280;64571;47.512;19.054;2023-05-13T01:02:20;100860.72;;;11.55;88.23
75891;BME280;64571;47.512;19.054;2023-05-13T01:05:30;100861.91;;;11.49;88.32
75891;BME280;64571;47.512;19.054;2023-05-13T01:09:07;100866.59;;;11.48;88.95
75891;BME280;64571;47.512;19.054;2023-05-13T01:12:23;100866.97;;;11.41;88.87
75891;BME280;64571;47.512;19.054;2023-05-13T01:15:28;100870.00;;;11.45;89.02
75891;BME280;64571;47.512;19.054;2023-05-13T01:18:39;100866.91;;;11.47;89.07
75891;BME280;64571;47.512;19.054;2023-05-13T01:21:51;100862.22;;;11.42;88.92
75891;BME280;64571;47.512;19.054;2023-05-13T01:24:55;100851.72;;;11.34;89.08
75891;BME280;64571;47.512;19.054;2023-05-13T01:27:58;100848.06;;;11.38;89.17
75891;BME280;64571;47.512;19.054;2023-05-13T01:31:01;100869.38;;;11.48;89.27
75891;BME280;64571;47.512;19.054;2023-05-13T01:34:04;100869.75;;;11.41;88.60
75891;BME280;64571;47.512;19.054;2023-05-13T01:37:07;100869.22;;;11.39;88.90
75891;BME280;64571;47.512;19.054;2023-05-13T01:40:10;100873.34;;;11.42;88.57
75891;BME280;64571;47.512;19.054;2023-05-13T01:43:33;100875.84;;;11.44;88.17
75891;BME280;64571;47.512;19.054;2023-05-13T01:46:39;100856.25;;;11.25;88.14
75891;BME280;64571;47.512;19.054;2023-05-13T01:49:42;100850.94;;;11.28;88.42
75891;BME280;64571;47.512;19.054;2023-05-13T01:52:44;100871.16;;;11.39;88.29
75891;BME280;64571;47.512;19.054;2023-05-13T01:55:47;100867.53;;;11.38;88.35
75891;BME280;64571;47.512;19.054;2023-05-13T01:58:49;100870.38;;;11.33;88.50
75891;BME280;64571;47.512;19.054;2023-05-13T02:01:52;100859.25;;;11.33;88.37
75891;BME280;64571;47.512;19.054;2023-05-13T02:04:55;100855.94;;;11.31;88.42
75891;BME280;64571;47.512;19.054;2023-05-13T02:07:57;100858.09;;;11.34;88.46
75891;BME280;64571;47.512;19.054;2023-05-13T02:11:00;100877.84;;;11.38;88.72
75891;BME280;64571;47.512;19.054;2023-05-13T02:14:02;100875.56;;;11.45;88.68
75891;BME280;64571;47.512;19.054;2023-05-13T02:17:05;100865.34;;;11.35;88.78
75891;BME280;64571;47.512;19.054;2023-05-13T02:20:08;100854.34;;;11.20;88.95
75891;BME280;64571;47.512;19.054;2023-05-13T02:23:11;100879.31;;;11.30;88.90
75891;BME280;64571;47.512;19.054;2023-05-13T02:26:13;100862.78;;;11.10;88.77
75891;BME280;64571;47.512;19.054;2023-05-13T02:29:16;100863.56;;;11.15;88.46
75891;BME280;64571;47.512;19.054;2023-05-13T02:32:18;100865.91;;;11.03;87.88
75891;BME280;64571;47.512;19.054;2023-05-13T02:35:21;100882.78;;;11.12;88.18
75891;BME280;64571;47.512;19.054;2023-05-13T02:38:23;100878.91;;;11.13;88.11
75891;BME280;64571;47.512;19.054;2023-05-13T02:41:26;100862.03;;;10.99;88.02
75891;BME280;64571;47.512;19.054;2023-05-13T02:44:29;100882.06;;;10.96;87.83
75891;BME280;64571;47.512;19.054;2023-05-13T02:47:32;100884.56;;;10.98;87.97
75891;BME280;64571;47.512;19.054;2023-05-13T02:50:36;100892.41;;;10.90;88.25
75891;BME280;64571;47.512;19.054;2023-05-13T02:53:38;100868.81;;;10.83;88.53
75891;BME280;64571;47.512;19.054;2023-05-13T02:56:42;100896.25;;;11.00;88.73
75891;BME280;64571;47.512;19.054;2023-05-13T02:59:45;100893.69;;;11.08;88.35
75891;BME280;64571;47.512;19.054;2023-05-13T03:02:48;100886.44;;;11.07;88.33
75891;BME280;64571;47.512;19.054;2023-05-13T03:05:50;100883.16;;;11.00;88.42
75891;BME280;64571;47.512;19.054;2023-05-13T03:08:53;100871.56;;;10.88;87.99
75891;BME280;64571;47.512;19.054;2023-05-13T03:11:55;100883.47;;;10.94;88.83
75891;BME280;64571;47.512;19.054;2023-05-13T03:14:58;100897.59;;;11.02;87.68
75891;BME280;64571;47.512;19.054;2023-05-13T03:18:01;100885.13;;;11.00;88.05
75891;BME280;64571;47.512;19.054;2023-05-13T03:21:03;100885.41;;;10.93;88.12
75891;BME280;64571;47.512;19.054;2023-05-13T03:24:06;100898.41;;;11.03;88.70
75891;BME280;64571;47.512;19.054;2023-05-13T03:27:09;100899.59;;;10.97;88.39
75891;BME280;64571;47.512;19.054;2023-05-13T03:30:13;100886.84;;;10.90;88.27
75891;BME280;64571;47.512;19.054;2023-05-13T03:33:16;100894.59;;;10.99;88.47
75891;BME280;64571;47.512;19.054;2023-05-13T03:36:19;100905.38;;;11.05;88.48
75891;BME280;64571;47.512;19.054;2023-05-13T03:39:22;100892.41;;;10.90;87.88
75891;BME280;64571;47.512;19.054;2023-05-13T03:42:26;100913.75;;;11.00;88.22
75891;BME280;64571;47.512;19.054;2023-05-13T03:45:29;100898.47;;;10.98;88.45
75891;BME280;64571;47.512;19.054;2023-05-13T03:48:33;100918.97;;;11.07;88.46
75891;BME280;64571;47.512;19.054;2023-05-13T03:51:36;100918.44;;;11.05;88.16
75891;BME280;64571;47.512;19.054;2023-05-13T03:54:40;100921.00;;;10.96;88.14
75891;BME280;64571;47.512;19.054;2023-05-13T03:57:48;100922.91;;;11.01;88.24
75891;BME280;64571;47.512;19.054;2023-05-13T04:00:51;100921.03;;;10.91;88.52
75891;BME280;64571;47.512;19.054;2023-05-13T04:03:53;100925.75;;;10.96;88.51
75891;BME280;64571;47.512;19.054;2023-05-13T04:06:56;100922.97;;;10.96;88.47
75891;BME280;64571;47.512;19.054;2023-05-13T04:09:58;100934.94;;;10.91;88.63
75891;BME280;64571;47.512;19.054;2023-05-13T04:13:01;100937.44;;;10.93;89.12
75891;BME280;64571;47.512;19.054;2023-05-13T04:16:04;100937.44;;;10.93;88.67
75891;BME280;64571;47.512;19.054;2023-05-13T04:19:06;100941.87;;;10.94;88.50
75891;BME280;64571;47.512;19.054;2023-05-13T04:22:09;100928.31;;;10.82;88.99
75891;BME280;64571;47.512;19.054;2023-05-13T04:25:12;100945.22;;;10.96;88.85
75891;BME280;64571;47.512;19.054;2023-05-13T04:28:15;100946.59;;;10.93;89.00
75891;BME280;64571;47.512;19.054;2023-05-13T04:31:19;100931.13;;;10.77;89.17
75891;BME280;64571;47.512;19.054;2023-05-13T04:34:22;100932.19;;;10.86;89.26
75891;BME280;64571;47.512;19.054;2023-05-13T04:37:26;100951.91;;;10.89;89.15
75891;BME280;64571;47.512;19.054;2023-05-13T04:40:29;100961.38;;;10.88;89.42
75891;BME280;64571;47.512;19.054;2023-05-13T04:43:33;100950.78;;;10.96;89.65
75891;BME280;64571;47.512;19.054;2023-05-13T04:46:36;100953.59;;;10.90;89.39
75891;BME280;64571;47.512;19.054;2023-05-13T04:49:41;100939.19;;;10.78;89.45
75891;BME280;64571;47.512;19.054;2023-05-13T04:52:45;100958.03;;;10.92;89.73
75891;BME280;64571;47.512;19.054;2023-05-13T04:55:49;100959.66;;;10.98;89.48
75891;BME280;64571;47.512;19.054;2023-05-13T04:58:52;100944.12;;;10.92;89.43
75891;BME280;64571;47.512;19.054;2023-05-13T05:01:54;100967.72;;;10.99;89.09
75891;BME280;64571;47.512;19.054;2023-05-13T05:04:57;100949.72;;;10.86;89.31
75891;BME280;64571;47.512;19.054;2023-05-13T05:08:00;100966.38;;;10.92;89.72
75891;BME280;64571;47.512;19.054;2023-05-13T05:11:05;100971.31;;;11.05;89.61
75891;BME280;64571;47.512;19.054;2023-05-13T05:14:09;100975.97;;;11.14;89.01
75891;BME280;64571;47.512;19.054;2023-05-13T05:17:12;100977.06;;;11.19;89.20
75891;BME280;64571;47.512;19.054;2023-05-13T05:20:14;100981.50;;;11.20;88.38
75891;BME280;64571;47.512;19.054;2023-05-13T05:23:19;100980.06;;;11.27;88.83
75891;BME280;64571;47.512;19.054;2023-05-13T05:26:22;100974.25;;;11.24;88.49
75891;BME280;64571;47.512;19.054;2023-05-13T05:29:25;100970.62;;;11.23;88.54
75891;BME280;64571;47.512;19.054;2023-05-13T05:32:28;100980.31;;;11.31;87.87
75891;BME280;64571;47.512;19.054;2023-05-13T05:35:31;100982.81;;;11.32;87.68
75891;BME280;64571;47.512;19.054;2023-05-13T05:38:35;100976.91;;;11.39;87.96
75891;BME280;64571;47.512;19.054;2023-05-13T05:41:37;100968.09;;;11.27;87.63
75891;BME280;64571;47.512;19.054;2023-05-13T05:44:40;100965.59;;;11.25;87.73
75891;BME280;64571;47.512;19.054;2023-05-13T05:47:43;100961.78;;;11.11;88.08
75891;BME280;64571;47.512;19.054;2023-05-13T05:50:46;100982.06;;;11.22;87.90
75891;BME280;64571;47.512;19.054;2023-05-13T05:53:50;100962.34;;;11.13;88.47
75891;BME280;64571;47.512;19.054;2023-05-13T05:56:53;100977.78;;;11.34;88.38
75891;BME280;64571;47.512;19.054;2023-05-13T05:59:55;100980.31;;;11.31;88.27
75891;BME280;64571;47.512;19.054;2023-05-13T06:02:58;100962.53;;;11.27;88.02
75891;BME280;64571;47.512;19.054;2023-05-13T06:06:01;100993.16;;;11.27;87.13
75891;BME280;64571;47.512;19.054;2023-05-13T06:09:04;100997.84;;;11.31;86.51
75891;BME280;64571;47.512;19.054;2023-05-13T06:12:07;100977.34;;;11.12;86.71
75891;BME280;64571;47.512;19.054;2023-05-13T06:15:10;101003.19;;;11.23;86.22
75891;BME280;64571;47.512;19.054;2023-05-13T06:18:13;100998.44;;;11.23;86.12
75891;BME280;64571;47.512;19.054;2023-05-13T06:21:16;101000.16;;;11.19;86.22
75891;BME280;64571;47.512;19.054;2023-05-13T06:24:20;101004.62;;;11.15;86.53
75891;BME280;64571;47.512;19.054;2023-05-13T06:27:23;101002.44;;;11.07;86.40
75891;BME280;64571;47.512;19.054;2023-05-13T06:30:26;101005.41;;;11.21;86.72
75891;BME280;64571;47.512;19.054;2023-05-13T06:33:29;100999.06;;;11.15;86.68
75891;BME280;64571;47.512;19.054;2023-05-13T06:36:31;100994.88;;;11.18;86.83
75891;BME280;64571;47.512;19.054;2023-05-13T06:39:36;101012.87;;;11.30;86.67
75891;BME280;64571;47.512;19.054;2023-05-13T06:42:39;101015.34;;;11.37;86.91
75891;BME280;64571;47.512;19.054;2023-05-13T06:45:46;100992.53;;;11.35;86.28
75891;BME280;64571;47.512;19.054;2023-05-13T06:48:50;101013.94;;;11.39;86.67
75891;BME280;64571;47.512;19.054;2023-05-13T06:51:54;101006.41;;;11.40;86.84
75891;BME280;64571;47.512;19.054;2023-05-13T06:54:57;100993.06;;;11.37;86.72
75891;BME280;64571;47.512;19.054;2023-05-13T06:58:00;101003.94;;;11.33;86.80
75891;BME280;64571;47.512;19.054;2023-05-13T07:01:03;101005.00;;;11.43;86.71
75891;BME280;64571;47.512;19.054;2023-05-13T07:04:06;100988.44;;;11.22;86.86
75891;BME280;64571;47.512;19.054;2023-05-13T07:07:08;101003.34;;;11.41;87.11
75891;BME280;64571;47.512;19.054;2023-05-13T07:10:11;101013.34;;;11.43;87.06
75891;BME280;64571;47.512;19.054;2023-05-13T07:13:14;101008.28;;;11.50;87.27
75891;BME280;64571;47.512;19.054;2023-05-13T07:16:16;101011.59;;;11.52;86.75
75891;BME280;64571;47.512;19.054;2023-05-13T07:19:19;101011.59;;;11.52;86.74
75891;BME280;64571;47.512;19.054;2023-05-13T07:22:21;101006.91;;;11.47;86.61
75891;BME280;64571;47.512;19.054;2023-05-13T07:25:24;101007.16;;;11.51;86.99
75891;BME280;64571;47.512;19.054;2023-05-13T07:28:26;101007.22;;;11.46;86.58
75891;BME280;64571;47.512;19.054;2023-05-13T07:31:29;101017.31;;;11.31;87.13
75891;BME280;64571;47.512;19.054;2023-05-13T07:34:32;101016.19;;;11.32;87.47
75891;BME280;64571;47.512;19.054;2023-05-13T07:37:34;101011.19;;;11.29;87.00
75891;BME280;64571;47.512;19.054;2023-05-13T07:40:38;101006.84;;;11.18;87.22
75891;BME280;64571;47.512;19.054;2023-05-13T07:43:40;101028.12;;;11.38;86.92
75891;BME280;64571;47.512;19.054;2023-05-13T07:46:43;101030.94;;;11.33;86.63
75891;BME280;64571;47.512;19.054;2023-05-13T07:49:46;101027.25;;;11.43;86.59
75891;BME280;64571;47.512;19.054;2023-05-13T07:52:48;101024.44;;;11.48;86.95
75891;BME280;64571;47.512;19.054;2023-05-13T07:55:53;101027.88;;;11.34;86.16
75891;BME280;64571;47.512;19.054;2023-05-13T07:58:56;101035.69;;;11.32;86.79
75891;BME280;64571;47.512;19.054;2023-05-13T08:01:59;101033.41;;;11.39;86.31
75891;BME280;64571;47.512;19.054;2023-05-13T08:05:04;101034.00;;;11.36;86.17
75891;BME280;64571;47.512;19.054;2023-05-13T08:08:07;101038.16;;;11.34;86.53
75891;BME280;64571;47.512;19.054;2023-05-13T08:11:10;101053.13;;;11.43;85.88
75891;BME280;64571;47.512;19.054;2023-05-13T08:14:13;101052.59;;;11.41;86.04
75891;BME280;64571;47.512;19.054;2023-05-13T08:17:16;101053.16;;;11.38;85.94
75891;BME280;64571;47.512;19.054;2023-05-13T08:20:21;101060.69;;;11.37;85.43
75891;BME280;64571;47.512;19.054;2023-05-13T08:23:32;101053.97;;;11.49;85.54
75891;BME280;64571;47.512;19.054;2023-05-13T08:26:46;101045.38;;;11.40;85.08
75891;BME280;64571;47.512;19.054;2023-05-13T08:29:49;101056.66;;;11.59;84.79
75891;BME280;64571;47.512;19.054;2023-05-13T08:32:52;101060.28;;;11.59;84.83
75891;BME280;64571;47.512;19.054;2023-05-13T08:35:55;101075.59;;;11.62;84.58
75891;BME280;64571;47.512;19.054;2023-05-13T08:38:57;101075.00;;;11.65;84.50
75891;BME280;64571;47.512;19.054;2023-05-13T08:42:02;101058.09;;;11.51;84.61
75891;BME280;64571;47.512;19.054;2023-05-13T08:45:07;101080.87;;;11.63;84.76
75891;BME280;64571;47.512;19.054;2023-05-13T08:48:13;101078.94;;;11.59;84.45
75891;BME280;64571;47.512;19.054;2023-05-13T08:51:16;101081.47;;;11.55;84.66
75891;BME280;64571;47.512;19.054;2023-05-13T08:54:19;101072.59;;;11.48;84.88
75891;BME280;64571;47.512;19.054;2023-05-13T08:57:26;101075.06;;;11.55;84.70
75891;BME280;64571;47.512;19.054;2023-05-13T09:00:29;101068.28;;;11.71;84.56
75891;BME280;64571;47.512;19.054;2023-05-13T09:03:31;101051.03;;;11.69;84.16
75891;BME280;64571;47.512;19.054;2023-05-13T09:06:34;101077.69;;;11.80;84.36
75891;BME280;64571;47.512;19.054;2023-05-13T09:09:37;101075.38;;;11.93;83.97
75891;BME280;64571;47.512;19.054;2023-05-13T09:15:45;101077.66;;;12.20;82.99
75891;BME280;64571;47.512;19.054;2023-05-13T09:18:48;101075.00;;;12.38;82.01
75891;BME280;64571;47.512;19.054;2023-05-13T09:21:52;101075.34;;;12.32;82.12
75891;BME280;64571;47.512;19.054;2023-05-13T09:24:54;101079.91;;;12.47;81.92
75891;BME280;64571;47.512;19.054;2023-05-13T09:28:01;101084.34;;;12.53;81.08
75891;BME280;64571;47.512;19.054;2023-05-13T09:31:04;101060.16;;;12.14;82.10
75891;BME280;64571;47.512;19.054;2023-05-13T09:34:07;101063.75;;;12.49;81.32
75891;BME280;64571;47.512;19.054;2023-05-13T09:37:16;101057.72;;;12.36;81.37
75891;BME280;64571;47.512;19.054;2023-05-13T09:40:19;101075.03;;;12.33;81.89
75891;BME280;64571;47.512;19.054;2023-05-13T09:43:25;101064.25;;;12.80;80.05
75891;BME280;64571;47.512;19.054;2023-05-13T09:46:30;101080.91;;;13.09;78.29
75891;BME280;64571;47.512;19.054;2023-05-13T09:49:33;101071.53;;;13.24;77.46
75891;BME280;64571;47.512;19.054;2023-05-13T09:52:37;101083.75;;;13.28;77.29
75891;BME280;64571;47.512;19.054;2023-05-13T09:55:47;101076.16;;;13.09;77.69
75891;BME280;64571;47.512;19.054;2023-05-13T09:58:52;101060.22;;;13.10;78.20
75891;BME280;64571;47.512;19.054;2023-05-13T10:01:55;101073.91;;;13.35;77.47
75891;BME280;64571;47.512;19.054;2023-05-13T10:05:01;101066.59;;;13.39;77.58
75891;BME280;64571;47.512;19.054;2023-05-13T10:08:04;101038.75;;;13.34;76.68
75891;BME280;64571;47.512;19.054;2023-05-13T10:11:10;101051.09;;;13.28;76.85
75891;BME280;64571;47.512;19.054;2023-05-13T10:14:16;101054.75;;;13.48;75.42
75891;BME280;64571;47.512;19.054;2023-05-13T10:17:20;101061.06;;;13.34;75.62
75891;BME280;64571;47.512;19.054;2023-05-13T10:20:23;101059.56;;;13.18;75.40
75891;BME280;64571;47.512;19.054;2023-05-13T10:23:28;101038.50;;;13.31;75.33
75891;BME280;64571;47.512;19.054;2023-05-13T10:26:31;101050.34;;;13.41;75.36
75891;BME280;64571;47.512;19.054;2023-05-13T10:29:36;101057.81;;;13.46;74.92
75891;BME280;64571;47.512;19.054;2023-05-13T10:32:39;101057.91;;;13.60;74.16
75891;BME280;64571;47.512;19.054;2023-05-13T10:42:42;101055.19;;;13.55;73.81
75891;BME280;64571;47.512;19.054;2023-05-13T10:45:47;101045.34;;;13.76;73.86
75891;BME280;64571;47.512;19.054;2023-05-13T10:48:55;101046.75;;;13.60;74.26
75891;BME280;64571;47.512;19.054;2023-05-13T10:52:13;101061.97;;;13.49;74.85
75891;BME280;64571;47.512;19.054;2023-05-13T10:55:18;101059.56;;;13.61;74.60
75891;BME280;64571;47.512;19.054;2023-05-13T10:58:28;101059.72;;;13.70;74.32
75891;BME280;64571;47.512;19.054;2023-05-13T11:01:35;101039.34;;;13.69;73.90
75891;BME280;64571;47.512;19.054;2023-05-13T11:04:58;101047.94;;;13.91;73.64
75891;BME280;64571;47.512;19.054;2023-05-13T11:08:01;101035.47;;;13.84;73.18
75891;BME280;64571;47.512;19.054;2023-05-13T11:14:23;101057.59;;;13.80;72.91
75891;BME280;64571;47.512;19.054;2023-05-13T11:17:26;101051.56;;;13.92;72.55
75891;BME280;64571;47.512;19.054;2023-05-13T11:20:32;101047.94;;;13.91;72.37
75891;BME280;64571;47.512;19.054;2023-05-13T11:24:01;101060.91;;;13.82;72.82
75891;BME280;64571;47.512;19.054;2023-05-13T11:27:19;101048.84;;;13.68;73.15
75891;BME280;64571;47.512;19.054;2023-05-13T11:30:24;101035.56;;;13.60;72.73
75891;BME280;64571;47.512;19.054;2023-05-13T11:37:19;101043.81;;;13.51;73.37
75891;BME280;64571;47.512;19.054;2023-05-13T11:40:33;101039.12;;;13.47;73.23
75891;BME280;64571;47.512;19.054;2023-05-13T11:43:38;101052.84;;;13.62;73.41
75891;BME280;64571;47.512;19.054;2023-05-13T11:46:48;101034.66;;;13.46;72.91
75891;BME280;64571;47.512;19.054;2023-05-13T11:49:51;101038.41;;;13.55;73.15
75891;BME280;64571;47.512;19.054;2023-05-13T11:52:55;101040.78;;;13.66;72.84
75891;BME280;64571;47.512;19.054;2023-05-13T11:56:10;101055.56;;;13.67;72.26
75891;BME280;64571;47.512;19.054;2023-05-13T11:59:14;101058.34;;;13.67;71.98
75891;BME280;64571;47.512;19.054;2023-05-13T12:02:20;101061.06;;;13.72;71.49
75891;BME280;64571;47.512;19.054;2023-05-13T12:05:24;101045.53;;;13.66;71.57
75891;BME280;64571;47.512;19.054;2023-05-13T12:08:27;101053.22;;;13.74;71.60
75891;BME280;64571;47.512;19.054;2023-05-13T12:11:32;101057.69;;;13.75;71.46
75891;BME280;64571;47.512;19.054;2023-05-13T12:14:34;101047.66;;;13.74;71.02
75891;BME280;64571;47.512;19.054;2023-05-13T12:17:38;101057.00;;;13.83;70.84
75891;BME280;64571;47.512;19.054;2023-05-13T12:20:41;101054.78;;;13.80;70.64
75891;BME280;64571;47.512;19.054;2023-05-13T12:23:43;101066.84;;;13.94;70.42
75891;BME280;64571;47.512;19.054;2023-05-13T12:26:46;101055.00;;;14.03;70.40
75891;BME280;64571;47.512;19.054;2023-05-13T12:29:53;101056.19;;;14.15;69.68
75891;BME280;64571;47.512;19.054;2023-05-13T12:32:57;101067.09;;;14.31;69.23
75891;BME280;64571;47.512;19.054;2023-05-13T12:39:19;101061.44;;;14.17;68.37
75891;BME280;64571;47.512;19.054;2023-05-13T12:42:22;101067.78;;;14.23;68.41
75891;BME280;64571;47.512;19.054;2023-05-13T12:45:28;101059.31;;;14.28;68.46
75891;BME280;64571;47.512;19.054;2023-05-13T12:48:31;101066.34;;;14.25;68.80
75891;BME280;64571;47.512;19.054;2023-05-13T12:51:34;101070.41;;;14.33;68.72
75891;BME280;64571;47.512;19.054;2023-05-13T12:54:36;101054.03;;;14.26;68.78
75891;BME280;64571;47.512;19.054;2023-05-13T12:57:40;101065.94;;;14.32;69.14
75891;BME280;64571;47.512;19.054;2023-05-13T13:00:44;101066.84;;;14.27;69.67
75891;BME280;64571;47.512;19.054;2023-05-13T13:03:47;101047.94;;;14.24;69.99
75891;BME280;64571;47.512;19.054;2023-05-13T13:06:50;101058.78;;;14.26;69.80
75891;BME280;64571;47.512;19.054;2023-05-13T13:09:52;101057.56;;;14.32;69.82
75891;BME280;64571;47.512;19.054;2023-05-13T13:12:56;101062.84;;;14.33;69.73
75891;BME280;64571;47.512;19.054;2023-05-13T13:15:59;101054.81;;;14.13;69.90
75891;BME280;64571;47.512;19.054;2023-05-13T13:19:02;101065.53;;;14.25;69.82
75891;BME280;64571;47.512;19.054;2023-05-13T13:22:04;101071.66;;;14.40;69.51
75891;BME280;64571;47.512;19.054;2023-05-13T13:25:07;101042.34;;;14.38;68.94
75891;BME280;64571;47.512;19.054;2023-05-13T13:28:10;101051.84;;;14.56;68.43
75891;BME280;64571;47.512;19.054;2023-05-13T13:31:13;101055.91;;;14.63;68.01
75891;BME280;64571;47.512;19.054;2023-05-13T13:34:15;101058.50;;;14.60;67.90
75891;BME280;64571;47.512;19.054;2023-05-13T13:37:18;101056.09;;;14.67;67.65
75891;BME280;64571;47.512;19.054;2023-05-13T13:40:20;101036.09;;;14.60;67.54
75891;BME280;64571;47.512;19.054;2023-05-13T13:43:23;101059.22;;;14.79;67.53
75891;BME280;64571;47.512;19.054;2023-05-13T13:46:26;101043.25;;;14.66;67.80
75891;BME280;64571;47.512;19.054;2023-05-13T13:49:28;101040.13;;;14.67;67.87
75891;BME280;64571;47.512;19.054;2023-05-13T13:52:31;101038.69;;;14.70;68.18
75891;BME280;64571;47.512;19.054;2023-05-13T13:55:33;101045.44;;;14.69;67.62
75891;BME280;64571;47.512;19.054;2023-05-13T13:58:36;101035.47;;;14.77;67.39
75891;BME280;64571;47.512;19.054;2023-05-13T14:01:38;101029.06;;;14.76;67.61
75891;BME280;64571;47.512;19.054;2023-05-13T14:04:41;101043.97;;;14.85;67.44
75891;BME280;64571;47.512;19.054;2023-05-13T14:07:44;101049.19;;;14.78;67.89
75891;BME280;64571;47.512;19.054;2023-05-13T14:10:47;101047.19;;;14.79;67.63
75891;BME280;64571;47.512;19.054;2023-05-13T14:13:50;101046.38;;;14.78;68.05
75891;BME280;64571;47.512;19.054;2023-05-13T14:16:52;101022.00;;;14.65;68.12
75891;BME280;64571;47.512;19.054;2023-05-13T14:19:55;101038.47;;;14.80;68.22
75891;BME280;64571;47.512;19.054;2023-05-13T14:22:57;101038.47;;;14.80;68.05
75891;BME280;64571;47.512;19.054;2023-05-13T14:26:00;101018.50;;;14.73;67.86
75891;BME280;64571;47.512;19.054;2023-05-13T14:29:02;101025.62;;;14.79;67.52
75891;BME280;64571;47.512;19.054;2023-05-13T14:32:05;101016.00;;;14.85;67.50
75891;BME280;64571;47.512;19.054;2023-05-13T14:35:08;101023.53;;;14.99;67.28
75891;BME280;64571;47.512;19.054;2023-05-13T14:38:11;101019.53;;;15.05;67.26
75891;BME280;64571;47.512;19.054;2023-05-13T14:41:13;101011.84;;;14.97;66.72
75891;BME280;64571;47.512;19.054;2023-05-13T14:44:21;101008.59;;;15.03;67.07
75891;BME280;64571;47.512;19.054;2023-05-13T14:47:23;101014.97;;;14.95;67.26
75891;BME280;64571;47.512;19.054;2023-05-13T14:50:26;101004.78;;;14.85;67.60
75891;BME280;64571;47.512;19.054;2023-05-13T14:53:28;101019.53;;;14.91;67.43
75891;BME280;64571;47.512;19.054;2023-05-13T14:56:31;101011.62;;;14.93;67.35
75891;BME280;64571;47.512;19.054;2023-05-13T14:59:33;101018.50;;;14.87;67.50
75891;BME280;64571;47.512;19.054;2023-05-13T15:02:36;101019.31;;;14.87;67.69
75891;BME280;64571;47.512;19.054;2023-05-13T15:05:43;101021.69;;;14.80;67.58
75891;BME280;64571;47.512;19.054;2023-05-13T15:08:45;101019.13;;;14.70;67.81
75891;BME280;64571;47.512;19.054;2023-05-13T15:11:48;101014.56;;;14.74;68.64
75891;BME280;64571;47.512;19.054;2023-05-13T15:14:54;101002.81;;;14.72;68.17
75891;BME280;64571;47.512;19.054;2023-05-13T15:17:57;100997.75;;;14.74;68.37
75891;BME280;64571;47.512;19.054;2023-05-13T15:20:59;101011.84;;;14.83;68.15
75891;BME280;64571;47.512;19.054;2023-05-13T15:24:02;101020.16;;;14.88;67.99
75891;BME280;64571;47.512;19.054;2023-05-13T15:27:05;101025.41;;;14.89;67.85
75891;BME280;64571;47.512;19.054;2023-05-13T15:30:08;101008.34;;;14.77;67.86
75891;BME280;64571;47.512;19.054;2023-05-13T15:33:10;101012.16;;;14.81;67.84
75891;BME280;64571;47.512;19.054;2023-05-13T15:36:13;101012.69;;;14.83;68.17
75891;BME280;64571;47.512;19.054;2023-05-13T15:39:15;101018.28;;;14.83;67.58
75891;BME280;64571;47.512;19.054;2023-05-13T15:42:18;101019.44;;;14.82;67.15
75891;BME280;64571;47.512;19.054;2023-05-13T15:45:20;101003.97;;;14.71;67.08
75891;BME280;64571;47.512;19.054;2023-05-13T15:48:23;101022.84;;;14.79;67.34
75891;BME280;64571;47.512;19.054;2023-05-13T15:51:26;100996.41;;;14.72;67.25
75891;BME280;64571;47.512;19.054;2023-05-13T15:54:28;101019.53;;;14.77;67.50
75891;BME280;64571;47.512;19.054;2023-05-13T15:57:31;101018.91;;;14.80;67.68
75891;BME280;64571;47.512;19.054;2023-05-13T16:00:34;101016.19;;;14.75;67.69
75891;BME280;64571;47.512;19.054;2023-05-13T16:03:36;101023.44;;;14.76;68.01
75891;BME280;64571;47.512;19.054;2023-05-13T16:06:39;101011.97;;;14.64;68.01
75891;BME280;64571;47.512;19.054;2023-05-13T16:09:42;101009.16;;;14.64;68.09